Time;durP1;ratioP1;P1;durP2;ratioP2;P2;SDS_P1;SDS_P2;PMS_P1;PMS_P2;Temp;Humidity;BMP_temperature;BMP_pressure;BME280_temperature;BME280_humidity;BME280_pressure;Samples;Min_cycle;Max_cycle;Signal;HPM_P1;HPM_P2
2023/03/23 00:01:53;;;;;;;;;59.67;45.67;;;;;5.68;90.49;99444.81;6276635;20;2872257;-43
2023/03/23 00:04:25;;;;;;;;;58.33;43.00;;;;;5.72;90.87;99433.97;6311030;20;2875346;-45
2023/03/23 00:06:55;;;;;;;;;53.67;42.67;;;;;5.56;90.60;99446.25;6311870;20;2869209;-44
2023/03/23 00:09:24;;;;;;;;;52.50;42.00;;;;;5.58;91.57;99440.84;6309485;20;2862782;-45
2023/03/23 00:11:56;;;;;;;;;55.67;44.33;;;;;5.51;90.52;99445.59;6283633;20;2875427;-44
2023/03/23 00:14:26;;;;;;;;;55.67;45.00;;;;;5.50;90.89;99438.50;6315165;20;2877491;-46
2023/03/23 00:16:55;;;;;;;;;54.50;45.00;;;;;5.44;91.89;99434.34;6318032;20;2869107;-43
2023/03/23 00:19:24;;;;;;;;;58.00;45.00;;;;;5.43;91.52;99432.63;6285423;20;2877783;-46
2023/03/23 00:21:55;;;;;;;;;55.33;42.00;;;;;5.45;90.51;99433.41;6285285;20;2856932;-46
2023/03/23 00:24:24;;;;;;;;;56.00;42.50;;;;;5.70;90.22;99432.31;6315216;20;2865936;-45
2023/03/23 00:26:54;;;;;;;;;56.67;46.00;;;;;5.34;90.38;99433.00;6285274;20;2875477;-45
2023/03/23 00:29:23;;;;;;;;;58.50;46.50;;;;;5.16;91.77;99434.72;6313598;20;2864890;-45
2023/03/23 00:31:53;;;;;;;;;60.00;45.67;;;;;5.35;91.68;99428.56;6283194;20;2867088;-46
2023/03/23 00:34:24;;;;;;;;;55.00;41.00;;;;;5.24;91.99;99432.56;6315946;20;2855541;-46
2023/03/23 00:36:56;;;;;;;;;55.00;43.50;;;;;5.32;92.19;99434.91;6317609;20;2852368;-45
2023/03/23 00:39:28;;;;;;;;;52.00;41.00;;;;;5.31;91.71;99432.28;6284573;20;2850367;-44
2023/03/23 00:42:00;;;;;;;;;58.33;44.33;;;;;5.33;92.54;99433.97;6280142;20;2880510;-45
2023/03/23 00:44:34;;;;;;;;;59.33;44.67;;;;;5.05;93.02;99437.84;6315993;20;3628389;-44
2023/03/23 00:47:04;;;;;;;;;47.00;42.00;;;;;5.21;92.76;99427.38;6316174;20;2843015;-45
2023/03/23 00:49:36;;;;;;;;;58.00;43.33;;;;;5.24;93.08;99424.59;6284757;20;2879451;-43
2023/03/23 00:52:06;;;;;;;;;57.00;43.33;;;;;5.24;92.60;99431.72;6312047;20;2866936;-43
2023/03/23 00:54:37;;;;;;;;;67.00;50.00;;;;;5.22;91.91;99425.59;6314604;20;3650248;-44
2023/03/23 00:57:07;;;;;;;;;63.00;49.33;;;;;5.04;92.81;99420.13;6315906;20;2874293;-43
2023/03/23 00:59:37;;;;;;;;;68.33;49.00;;;;;5.18;92.15;99421.31;6317585;20;3645178;-45
2023/03/23 01:02:06;;;;;;;;;60.67;45.67;;;;;5.03;92.05;99413.09;6314271;20;2871207;-43
2023/03/23 01:04:39;;;;;;;;;61.33;47.00;;;;;5.02;93.17;99411.34;6314765;20;2858652;-45
2023/03/23 01:07:12;;;;;;;;;62.00;48.33;;;;;5.20;93.12;99416.78;6314665;20;2869031;-45
2023/03/23 01:09:44;;;;;;;;;59.50;44.00;;;;;5.10;93.26;99412.81;6309579;20;2872157;-45
2023/03/23 01:12:14;;;;;;;;;63.67;46.00;;;;;4.94;93.55;99418.78;6283431;20;3623258;-45
2023/03/23 01:14:43;;;;;;;;;57.50;46.00;;;;;4.76;94.33;99414.25;6314034;20;2850382;-43
2023/03/23 01:17:12;;;;;;;;;59.00;46.00;;;;;4.61;94.59;99383.88;6283273;20;2862833;-44
2023/03/23 01:19:42;;;;;;;;;62.00;46.33;;;;;4.68;95.61;99408.38;6283389;20;2883633;-44
2023/03/23 01:22:11;;;;;;;;;63.00;49.00;;;;;4.86;94.94;99415.59;6312349;20;2862782;-45
2023/03/23 01:24:41;;;;;;;;;59.00;46.00;;;;;5.00;94.27;99415.00;6315708;20;2864893;-46
2023/03/23 01:27:11;;;;;;;;;61.67;45.67;;;;;4.92;93.96;99410.00;6313963;20;2888905;-44
2023/03/23 01:29:40;;;;;;;;;46.50;37.50;;;;;4.73;93.96;99414.38;6313066;20;2839905;-47
2023/03/23 01:32:10;;;;;;;;;67.00;49.67;;;;;4.76;94.83;99414.25;6284079;20;3636723;-45
2023/03/23 01:34:39;;;;;;;;;55.00;44.50;;;;;4.56;95.46;99407.97;6314632;20;2853442;-44
2023/03/23 01:37:10;;;;;;;;;57.50;45.50;;;;;4.61;95.49;99411.31;6283860;20;2879824;-50
2023/03/23 01:39:39;;;;;;;;;56.00;46.00;;;;;4.80;94.91;99406.09;6283876;20;2865898;-47
2023/03/23 01:42:11;;;;;;;;;61.33;46.33;;;;;4.60;94.84;99412.22;6282334;20;2884643;-45
2023/03/23 01:44:40;;;;;;;;;53.00;44.00;;;;;4.50;94.82;99407.34;6311203;20;2858609;-49
2023/03/23 01:47:09;;;;;;;;;56.00;44.00;;;;;4.42;95.11;99402.34;6283335;20;2870193;-44
2023/03/23 01:49:45;;;;;;;;;44.00;35.00;;;;;4.59;94.89;99410.50;6284733;20;2874187;-47
2023/03/23 01:52:24;;;;;;;;;51.00;42.50;;;;;4.46;94.09;99408.44;6279174;20;2851352;-44
2023/03/23 01:54:57;;;;;;;;;57.00;42.50;;;;;4.44;93.62;99403.16;6281530;20;2856671;-47
2023/03/23 01:57:29;;;;;;;;;58.00;46.00;;;;;4.10;94.02;99409.84;6283062;20;2848242;-47
2023/03/23 02:00:09;;;;;;;;;65.50;49.00;;;;;4.25;93.82;99412.81;6280026;20;2867936;-46
2023/03/23 02:02:38;;;;;;;;;59.00;45.50;;;;;4.22;94.17;99402.31;6279540;20;2879437;-46
2023/03/23 02:05:31;;;;;;;;;58.00;43.00;;;;;4.17;94.48;99406.00;6280428;20;2493205;-45
2023/03/23 02:08:05;;;;;;;;;55.00;43.33;;;;;4.06;95.18;99413.56;6282119;20;2881734;-45
2023/03/23 02:10:35;;;;;;;;;54.50;44.50;;;;;4.05;95.76;99410.94;6314726;20;2854618;-45
2023/03/23 02:13:09;;;;;;;;;63.33;47.00;;;;;4.11;95.23;99411.59;6280841;20;2879592;-45
2023/03/23 02:16:12;;;;;;;;;66.00;45.33;;;;;4.11;95.74;99413.38;6312207;20;3645049;-44
2023/03/23 02:19:49;;;;;;;;;59.00;47.00;;;;;4.31;94.43;99416.09;6315033;20;2861755;-45
2023/03/23 02:22:52;;;;;;;;;60.33;46.00;;;;;4.27;93.18;99416.28;6275289;20;2887939;-45
2023/03/23 02:25:58;;;;;;;;;60.33;46.67;;;;;4.27;93.24;99419.81;6308383;20;2853517;-44
2023/03/23 02:29:03;;;;;;;;;67.00;50.67;;;;;4.30;93.43;99410.84;6312447;20;2879495;-46
2023/03/23 02:32:23;;;;;;;;;64.67;52.67;;;;;3.96;94.15;99414.84;6310128;20;2879433;-45
2023/03/23 02:34:58;;;;;;;;;59.50;47.00;;;;;4.24;93.56;99421.69;6310944;20;2876370;-46
2023/03/23 02:37:42;;;;;;;;;60.00;45.67;;;;;3.90;93.14;99417.75;6280126;20;3629826;-45
2023/03/23 02:40:24;;;;;;;;;60.33;45.00;;;;;3.82;94.18;99415.38;6312009;20;2875355;-44
2023/03/23 02:42:56;;;;;;;;;62.67;50.33;;;;;3.74;94.58;99417.47;6310233;20;2874370;-45
2023/03/23 02:45:29;;;;;;;;;67.33;51.00;;;;;3.67;95.22;99422.13;6313240;20;2882643;-43
2023/03/23 02:48:00;;;;;;;;;63.50;49.50;;;;;3.62;95.53;99426.75;6311428;20;2870145;-45
2023/03/23 02:50:32;;;;;;;;;71.67;53.00;;;;;3.56;96.22;99420.81;6277950;20;3653372;-46
2023/03/23 02:53:09;;;;;;;;;68.67;52.00;;;;;3.27;96.65;99423.59;6312086;20;2868128;-45
2023/03/23 02:55:42;;;;;;;;;63.50;48.00;;;;;3.66;96.36;99425.72;6312156;20;2869023;-46
2023/03/23 02:58:12;;;;;;;;;69.67;50.33;;;;;3.71;95.54;99430.81;6277753;20;2873293;-46
2023/03/23 03:00:43;;;;;;;;;69.67;51.00;;;;;3.37;96.23;99425.91;6311930;20;2891008;-47
2023/03/23 03:03:20;;;;;;;;;62.00;49.50;;;;;3.51;96.99;99428.94;6310727;20;2864855;-44
2023/03/23 03:06:14;;;;;;;;;67.33;50.33;;;;;3.46;97.45;99434.41;6279905;20;3626296;-45
2023/03/23 03:09:00;;;;;;;;;60.00;48.00;;;;;3.60;96.45;99435.69;6310223;20;2859728;-49
2023/03/23 03:11:32;;;;;;;;;60.00;49.00;;;;;3.51;96.89;99431.59;6276633;20;2854468;-45
2023/03/23 03:14:44;;;;;;;;;64.00;47.50;;;;;3.43;97.00;99437.19;6279947;20;2878447;-46
2023/03/23 03:17:28;;;;;;;;;56.50;44.00;;;;;3.56;96.23;99440.25;6276795;20;2851356;-44
2023/03/23 03:20:09;;;;;;;;;56.00;41.00;;;;;3.47;95.78;99437.91;6277173;20;2498243;-45
2023/03/23 03:22:43;;;;;;;;;60.00;45.00;;;;;3.28;96.42;99429.75;6279065;20;2866944;-45
2023/03/23 03:25:13;;;;;;;;;45.00;39.00;;;;;3.35;95.68;99430.44;6277482;20;2494092;-45
2023/03/23 03:27:49;;;;;;;;;56.50;43.00;;;;;3.41;95.91;99435.50;6280977;20;2866977;-43
2023/03/23 03:30:26;;;;;;;;;56.00;45.00;;;;;3.37;95.71;99432.09;6279566;20;2852338;-45
2023/03/23 03:33:00;;;;;;;;;75.33;57.00;;;;;3.71;94.18;99438.78;6280909;20;2887908;-44
2023/03/23 03:35:31;;;;;;;;;81.33;59.00;;;;;3.53;94.77;99440.38;6312067;20;3645055;-46
2023/03/23 03:38:10;;;;;;;;;89.33;75.67;;;;;3.24;95.11;99438.78;6312538;20;3655472;-46
2023/03/23 03:40:40;;;;;;;;;97.50;78.00;;;;;3.34;95.99;99441.94;6308855;20;3627386;-45
2023/03/23 03:43:10;;;;;;;;;99.00;71.67;;;;;3.50;94.48;99441.34;6278025;20;3689924;-45
2023/03/23 03:45:41;;;;;;;;;92.67;74.00;;;;;3.28;95.52;99438.59;6277106;20;3673222;-45
2023/03/23 03:48:12;;;;;;;;;93.67;72.00;;;;;3.48;95.66;99437.88;6279930;20;3682532;-44
2023/03/23 03:50:42;;;;;;;;;97.33;77.00;;;;;3.35;95.59;99451.66;6277225;20;3679494;-44
2023/03/23 03:53:12;;;;;;;;;82.00;61.00;;;;;3.41;95.43;99449.63;6279047;20;3660747;-46
2023/03/23 03:55:48;;;;;;;;;80.67;60.00;;;;;3.38;95.21;99455.06;6312274;20;3625637;-44
2023/03/23 03:58:18;;;;;;;;;73.00;58.33;;;;;3.04;96.07;99453.59;6310553;20;2878445;-44
2023/03/23 04:00:48;;;;;;;;;87.00;65.00;;;;;2.96;97.21;99449.47;6307842;20;3641924;-44
2023/03/23 04:03:18;;;;;;;;;74.00;57.33;;;;;2.92;97.88;99453.13;6309461;20;3636752;-44
2023/03/23 04:05:48;;;;;;;;;62.33;48.33;;;;;3.26;97.93;99448.38;6311118;20;2873284;-44
2023/03/23 04:08:26;;;;;;;;;66.00;51.67;;;;;3.48;98.00;99452.94;6309387;20;2880643;-44
2023/03/23 04:10:57;;;;;;;;;67.00;49.67;;;;;3.30;98.56;99452.66;6310937;20;2873277;-44
2023/03/23 04:13:26;;;;;;;;;75.33;56.00;;;;;3.23;99.34;99452.94;6311602;20;2881637;-44
2023/03/23 04:15:56;;;;;;;;;66.00;54.33;;;;;3.50;99.76;99459.03;6308897;20;2881591;-44
2023/03/23 04:18:39;;;;;;;;;69.00;51.67;;;;;3.49;98.48;99462.63;6309239;20;3643036;-46
2023/03/23 04:21:09;;;;;;;;;60.67;47.00;;;;;3.27;98.19;99457.22;6309633;20;2880452;-46
2023/03/23 04:23:40;;;;;;;;;75.33;56.33;;;;;3.19;98.59;99452.19;6310495;20;2884761;-46
2023/03/23 04:26:12;;;;;;;;;76.67;56.00;;;;;3.26;98.10;99451.03;6310964;20;3645084;-45
2023/03/23 04:28:43;;;;;;;;;84.00;62.00;;;;;3.02;97.31;99449.25;6311878;20;3648248;-45
2023/03/23 04:31:14;;;;;;;;;77.00;59.00;;;;;2.91;98.06;99452.28;6306249;20;3639918;-44
2023/03/23 04:33:43;;;;;;;;;68.00;53.00;;;;;2.75;98.21;99451.94;6309104;20;2867068;-47
2023/03/23 04:36:29;;;;;;;;;70.00;50.00;;;;;2.94;98.68;99451.31;6280274;20;2884643;-45
2023/03/23 04:39:19;;;;;;;;;70.67;54.67;;;;;3.00;96.67;99445.78;6308084;20;2882719;-43
2023/03/23 04:41:49;;;;;;;;;85.00;59.00;;;;;2.98;97.16;99452.94;6307908;20;3666930;-44
2023/03/23 04:44:21;;;;;;;;;85.00;62.00;;;;;2.97;96.96;99453.84;6306689;20;3655478;-45
2023/03/23 04:46:53;;;;;;;;;84.00;62.67;;;;;2.90;96.48;99449.66;6309526;20;3648165;-45
2023/03/23 04:49:23;;;;;;;;;87.67;64.00;;;;;2.94;96.67;99451.31;6311417;20;3643992;-45
2023/03/23 04:51:53;;;;;;;;;85.00;61.00;;;;;3.32;98.00;99457.03;6307401;20;3649280;-46
2023/03/23 04:54:24;;;;;;;;;83.00;62.33;;;;;3.24;96.53;99455.56;6308350;20;3651252;-44
2023/03/23 04:56:53;;;;;;;;;89.33;63.00;;;;;3.35;95.77;99452.50;6312206;20;3653379;-45
2023/03/23 04:59:27;;;;;;;;;88.67;61.33;;;;;3.49;95.42;99454.66;6313272;20;3653344;-48
2023/03/23 05:01:57;;;;;;;;;113.33;91.00;;;;;3.56;95.70;99450.00;6314557;20;3703503;-46
2023/03/23 05:04:43;;;;;;;;;96.67;78.33;;;;;3.42;95.88;99461.09;6281525;20;3673187;-46
2023/03/23 05:07:21;;;;;;;;;85.33;63.67;;;;;3.54;95.28;99458.00;6284514;20;3652385;-45
2023/03/23 05:09:50;;;;;;;;;76.00;54.50;;;;;3.27;96.19;99455.44;6315339;20;2876329;-48
2023/03/23 05:12:20;;;;;;;;;92.67;69.33;;;;;3.41;96.28;99456.72;6285317;20;3671260;-47
2023/03/23 05:14:50;;;;;;;;;81.33;61.00;;;;;3.54;95.45;99463.31;6283301;20;3646107;-50
2023/03/23 05:17:19;;;;;;;;;89.33;70.00;;;;;3.57;95.97;99455.25;6316719;20;3676280;-53
2023/03/23 05:19:51;;;;;;;;;98.00;78.00;;;;;3.80;95.46;99461.50;6281658;20;3692982;-50
2023/03/23 05:22:22;;;;;;;;;107.00;80.33;;;;;4.03;94.49;99461.50;6283059;20;3693049;-50
2023/03/23 05:24:52;;;;;;;;;95.33;76.00;;;;;4.32;93.93;99462.16;6282959;20;3675390;-48
2023/03/23 05:27:21;;;;;;;;;87.00;66.67;;;;;4.52;93.79;99464.84;6281383;20;3665247;-49
2023/03/23 05:29:51;;;;;;;;;81.67;61.00;;;;;5.02;91.60;99471.66;6283520;20;3628453;-44
2023/03/23 05:32:28;;;;;;;;;91.67;71.33;;;;;5.35;89.21;99461.38;6314657;20;3688535;-45
2023/03/23 05:35:00;;;;;;;;;84.67;63.67;;;;;5.31;89.64;99465.09;6284390;20;3647155;-45
2023/03/23 05:37:33;;;;;;;;;85.33;62.67;;;;;5.39;89.01;99467.41;6311587;20;3652328;-46
2023/03/23 05:40:06;;;;;;;;;96.50;76.50;;;;;5.21;89.59;99475.28;6318303;20;4440895;-45
2023/03/23 05:42:36;;;;;;;;;85.33;66.33;;;;;5.30;90.06;99467.84;6315184;20;3657598;-44
2023/03/23 05:45:10;;;;;;;;;113.33;92.00;;;;;5.56;90.03;99469.34;6280947;20;3711736;-48
2023/03/23 05:47:41;;;;;;;;;100.00;84.33;;;;;5.28;91.17;99466.09;6283362;20;3681496;-46
2023/03/23 05:50:12;;;;;;;;;99.33;79.00;;;;;5.72;91.33;99470.41;6279637;20;3673200;-45
2023/03/23 05:52:42;;;;;;;;;85.00;68.33;;;;;6.02;89.78;99467.28;6278910;20;3658608;-45
2023/03/23 05:55:12;;;;;;;;;85.67;69.00;;;;;6.20;89.33;99460.22;6278998;20;3671115;-46
2023/03/23 05:57:42;;;;;;;;;83.67;67.33;;;;;6.60;88.53;99461.84;6282174;20;3668029;-44
2023/03/23 06:00:19;;;;;;;;;72.33;54.67;;;;;6.75;87.39;99463.75;6279093;20;3647265;-50
2023/03/23 06:02:54;;;;;;;;;69.00;53.00;;;;;7.45;83.82;99469.09;6314061;20;3631609;-51
2023/03/23 06:05:25;;;;;;;;;74.33;58.67;;;;;7.75;83.37;99471.97;6315216;20;2858630;-48
2023/03/23 06:07:55;;;;;;;;;60.33;46.33;;;;;8.52;78.28;99467.78;6313073;20;3636733;-46
2023/03/23 06:10:25;;;;;;;;;38.50;31.50;;;;;10.12;71.02;99477.88;6315228;20;2859663;-47
2023/03/23 06:12:55;;;;;;;;;59.33;47.33;;;;;9.97;68.73;99473.47;6284464;20;2853408;-46
2023/03/23 06:15:25;;;;;;;;;65.67;52.33;;;;;10.79;65.33;99469.97;6313109;20;2870170;-47
2023/03/23 06:17:56;;;;;;;;;64.67;51.00;;;;;9.76;68.77;99468.47;6311028;20;3623186;-47
2023/03/23 06:20:26;;;;;;;;;69.33;52.67;;;;;11.65;64.31;99467.72;6310278;20;3626334;-45
2023/03/23 06:22:56;;;;;;;;;68.00;52.67;;;;;15.43;52.58;99479.13;6312602;20;3630606;-46
2023/03/23 06:25:25;;;;;;;;;63.67;50.00;;;;;16.80;47.39;99480.75;6314157;20;3620232;-50
2023/03/23 06:27:54;;;;;;;;;59.33;47.00;;;;;16.78;45.59;99483.56;6279248;20;3628505;-48
2023/03/23 06:30:24;;;;;;;;;54.33;46.00;;;;;15.68;49.78;99479.72;6308834;20;3614807;-46
2023/03/23 06:32:54;;;;;;;;;53.00;43.33;;;;;18.97;42.63;99489.03;6279604;20;2870184;-45
2023/03/23 06:35:23;;;;;;;;;56.00;43.33;;;;;18.26;42.98;99492.38;6316580;20;3613783;-48
2023/03/23 06:37:53;;;;;;;;;61.00;46.75;;;;;19.91;38.61;99496.75;6281896;20;4390875;-48
2023/03/23 06:40:23;;;;;;;;;59.00;45.00;;;;;19.37;41.12;99495.06;6315134;20;3623655;-47
2023/03/23 06:42:51;;;;;;;;;57.33;47.00;;;;;19.29;42.01;99502.13;6316029;20;3614831;-46
2023/03/23 06:45:21;;;;;;;;;55.00;45.50;;;;;19.27;41.57;99497.84;6278789;20;2858628;-49
2023/03/23 06:47:50;;;;;;;;;52.00;43.33;;;;;18.94;42.04;99502.97;6281950;20;2850296;-53
2023/03/23 06:50:20;;;;;;;;;53.00;42.67;;;;;20.60;39.50;99511.34;6315494;20;3606581;-53
2023/03/23 06:52:52;;;;;;;;;51.00;42.00;;;;;21.36;37.26;99509.53;6281665;20;3593988;-53
2023/03/23 06:55:20;;;;;;;;;54.00;43.67;;;;;19.91;39.32;99515.00;6310909;20;3607537;-52
2023/03/23 06:57:49;;;;;;;;;55.67;43.67;;;;;19.86;39.04;99514.59;6284184;20;3620059;-48
2023/03/23 07:00:20;;;;;;;;;55.67;44.00;;;;;20.64;38.43;99517.31;6280705;20;3608706;-46
2023/03/23 07:02:49;;;;;;;;;58.00;46.67;;;;;21.42;37.39;99513.50;6316224;20;3620475;-48
2023/03/23 07:05:17;;;;;;;;;56.33;46.00;;;;;22.13;37.12;99518.28;6280104;20;3605493;-47
2023/03/23 07:07:47;;;;;;;;;50.00;40.67;;;;;22.41;36.11;99515.19;6280535;20;3600400;-47
2023/03/23 07:10:16;;;;;;;;;52.33;41.33;;;;;22.49;35.81;99509.72;6311513;20;3602457;-47
2023/03/23 07:12:46;;;;;;;;;52.67;44.33;;;;;22.12;37.11;99519.31;6282351;20;3602372;-50
2023/03/23 07:15:15;;;;;;;;;47.00;39.33;;;;;24.13;33.71;99516.94;6317504;20;3582585;-47
2023/03/23 07:17:45;;;;;;;;;55.33;44.00;;;;;22.44;37.18;99514.00;6280703;20;3607547;-48
2023/03/23 07:20:14;;;;;;;;;43.67;35.00;;;;;22.10;37.40;99517.78;6315871;20;3588880;-48
2023/03/23 07:22:44;;;;;;;;;41.67;36.00;;;;;23.80;34.98;99517.25;6281329;20;2842073;-61
2023/03/23 07:25:26;;;;;;;;;39.00;34.00;;;;;20.21;40.85;99505.47;6312520;20;3607654;-60
2023/03/23 07:28:02;;;;;;;;;32.67;31.67;;;;;17.32;50.03;99498.50;6290013;20;3610779;-60
2023/03/23 07:30:37;;;;;;;;;49.33;40.67;;;;;17.24;51.16;99498.34;6280477;20;3591007;-60
2023/03/23 07:33:11;;;;;;;;;37.50;33.00;;;;;17.26;51.24;99503.63;6282388;20;3481535;-60
2023/03/23 07:35:40;;;;;;;;;37.33;32.67;;;;;17.06;51.39;99503.63;6318366;20;3615903;-60
2023/03/23 07:38:09;;;;;;;;;38.67;33.67;;;;;17.60;50.96;99511.34;6282360;20;3593058;-59
2023/03/23 07:40:38;;;;;;;;;30.00;28.00;;;;;17.36;50.77;99515.34;6284571;20;3604501;-60
2023/03/23 07:43:07;;;;;;;;;30.00;29.00;;;;;17.24;50.41;99520.03;6281720;20;3596204;-60
2023/03/23 07:45:36;;;;;;;;;31.33;27.33;;;;;17.33;49.45;99511.06;6282329;20;3578403;-60
2023/03/23 07:48:06;;;;;;;;;27.33;27.33;;;;;18.17;49.33;99515.88;6278533;20;3604478;-61
2023/03/23 07:50:48;;;;;;;;;27.33;25.67;;;;;17.83;48.86;99518.22;6312149;20;3595147;-60
2023/03/23 07:53:17;;;;;;;;;23.33;21.67;;;;;18.02;47.85;99516.47;6285213;20;3583651;-59
2023/03/23 07:55:47;;;;;;;;;22.67;22.00;;;;;18.16;47.68;99525.00;6282186;20;2842031;-59
2023/03/23 07:58:18;;;;;;;;;22.00;22.00;;;;;18.68;46.96;99518.25;6317502;20;3585666;-60
2023/03/23 08:00:48;;;;;;;;;28.00;25.33;;;;;18.64;45.76;99524.00;6283777;20;3594046;-60
2023/03/23 08:03:18;;;;;;;;;21.00;20.67;;;;;18.18;46.56;99525.72;6285866;20;3584707;-60
2023/03/23 08:05:46;;;;;;;;;23.67;20.00;;;;;17.83;47.33;99533.69;6285123;20;3564906;-61
2023/03/23 08:08:16;;;;;;;;;22.33;22.33;;;;;17.36;47.50;99531.63;6282007;20;2846353;-60
2023/03/23 08:10:45;;;;;;;;;20.67;20.67;;;;;17.87;46.99;99529.66;6315213;20;3572139;-60
2023/03/23 08:13:15;;;;;;;;;19.00;19.00;;;;;17.97;47.34;99525.91;6274508;20;2839896;-57
2023/03/23 08:15:44;;;;;;;;;23.67;20.00;;;;;18.27;45.21;99528.56;6287145;20;3573304;-59
2023/03/23 08:18:13;;;;;;;;;20.00;20.00;;;;;18.29;46.16;99523.84;6278979;20;3585690;-60
2023/03/23 08:20:42;;;;;;;;;20.00;20.00;;;;;18.86;44.59;99521.91;6282204;20;3574219;-60
2023/03/23 08:23:11;;;;;;;;;24.50;22.50;;;;;18.74;44.30;99523.94;6278291;20;2843052;-60
2023/03/23 08:25:41;;;;;;;;;18.00;18.00;;;;;18.89;43.40;99523.47;6279296;20;3566926;-58
2023/03/23 08:28:10;;;;;;;;;19.33;18.00;;;;;19.73;42.70;99525.91;6281264;20;3557654;-55
2023/03/23 08:30:40;;;;;;;;;20.33;19.67;;;;;19.45;44.34;99522.38;6315146;20;3585736;-58
2023/03/23 08:33:10;;;;;;;;;17.00;17.00;;;;;19.57;43.71;99526.59;6289428;20;3564897;-58
2023/03/23 08:35:38;;;;;;;;;16.50;15.00;;;;;19.16;43.46;99522.59;6285925;20;2816965;-58
2023/03/23 08:38:07;;;;;;;;;16.67;16.00;;;;;19.88;42.67;99524.34;6286203;20;3548222;-58
2023/03/23 08:40:36;;;;;;;;;17.50;16.50;;;;;19.98;41.91;99535.13;6287158;20;2483627;-59
2023/03/23 08:43:06;;;;;;;;;14.00;14.00;;;;;19.86;41.47;99525.50;6284573;20;3511722;-58
2023/03/23 08:45:34;;;;;;;;;14.00;12.00;;;;;19.34;42.13;99530.78;6318045;20;2487792;-58
2023/03/23 08:48:03;;;;;;;;;13.67;13.00;;;;;18.87;41.53;99534.50;6286303;20;3531534;-59
2023/03/23 08:50:32;;;;;;;;;15.33;13.67;;;;;19.13;41.24;99533.78;6286238;20;3531528;-58
2023/03/23 08:53:00;;;;;;;;;15.33;13.67;;;;;19.65;40.79;99529.38;6320202;20;2802432;-59
2023/03/23 08:55:30;;;;;;;;;8.60;6.40;;;;;19.63;39.60;99536.00;6342886;20;2734752;-58
2023/03/23 08:57:59;;;;;;;;;13.00;10.67;;;;;19.78;39.97;99539.91;6316270;20;3512276;-59
2023/03/23 09:00:27;;;;;;;;;11.00;11.00;;;;;19.54;39.71;99532.34;6315976;20;3512821;-56
2023/03/23 09:03:01;;;;;;;;;10.67;10.00;;;;;19.60;40.16;99533.59;6324899;20;2788873;-59
2023/03/23 09:05:31;;;;;;;;;9.40;9.40;;;;;19.75;39.83;99534.78;6342164;20;2771326;-58
2023/03/23 09:08:00;;;;;;;;;11.00;11.00;;;;;20.01;38.95;99528.50;6286013;20;3517006;-58
2023/03/23 09:10:30;;;;;;;;;11.00;9.00;;;;;20.56;38.92;99530.91;6314802;20;2769152;-58
2023/03/23 09:12:58;;;;;;;;;9.00;8.00;;;;;19.85;37.92;99530.09;6325500;20;2754518;-59
2023/03/23 09:15:28;;;;;;;;;10.67;10.00;;;;;20.63;38.38;99529.25;6319330;20;2796224;-59
2023/03/23 09:18:04;;;;;;;;;9.00;9.00;;;;;20.64;36.42;99533.69;6343287;20;2748227;-59
2023/03/23 09:20:33;;;;;;;;;9.33;9.33;;;;;20.58;37.27;99537.06;6316651;20;2760737;-59
2023/03/23 09:23:04;;;;;;;;;9.00;9.00;;;;;20.51;38.06;99528.66;6342453;20;2765082;-59
2023/03/23 09:25:32;;;;;;;;;8.67;8.67;;;;;20.79;38.06;99523.88;6292865;20;2745110;-60
2023/03/23 09:28:03;;;;;;;;;7.00;7.00;;;;;20.85;36.82;99527.81;6341322;20;2734665;-59
2023/03/23 09:30:36;;;;;;;;;8.60;8.60;;;;;20.90;36.47;99522.72;6341503;20;2744109;-58
2023/03/23 09:33:20;;;;;;;;;8.00;7.00;;;;;20.62;37.80;99519.38;6286777;20;2730573;-59
2023/03/23 09:35:49;;;;;;;;;8.00;7.00;;;;;20.92;36.68;99533.47;6342961;20;2738864;-58
2023/03/23 09:38:19;;;;;;;;;7.00;6.00;;;;;20.32;37.60;99524.28;6322022;20;2735763;-58
2023/03/23 09:41:33;;;;;;;;;9.00;7.00;;;;;20.32;37.32;99513.38;6338946;20;2750310;-59
2023/03/23 09:44:27;;;;;;;;;8.60;8.60;;;;;21.39;36.52;99513.84;6303588;20;2736739;-58
2023/03/23 09:47:31;;;;;;;;;7.00;7.00;;;;;21.06;35.65;99513.72;6309406;20;2739862;-58
2023/03/23 09:50:15;;;;;;;;;7.40;7.40;;;;;21.01;36.22;99505.19;6312170;20;2738826;-57
2023/03/23 09:52:56;;;;;;;;;10.67;9.33;;;;;20.82;36.24;99507.16;6307785;20;2779443;-58
2023/03/23 09:55:25;;;;;;;;;10.33;10.33;;;;;21.32;36.52;99510.03;6313855;20;3505455;-58
2023/03/23 09:58:24;;;;;;;;;7.40;7.40;;;;;20.87;36.90;99519.47;6340678;20;2738822;-59
2023/03/23 10:01:07;;;;;;;;;9.40;8.00;;;;;21.41;35.69;99506.34;6340761;20;2766139;-59
2023/03/23 10:03:43;;;;;;;;;8.00;8.00;;;;;20.74;36.44;99500.81;6306532;20;2756558;-57
2023/03/23 10:06:17;;;;;;;;;9.20;8.00;;;;;20.85;36.14;99491.50;6305586;20;2757696;-59
2023/03/23 10:08:57;;;;;;;;;9.60;8.00;;;;;20.56;36.85;99488.16;6310527;20;2760698;-57
2023/03/23 10:11:52;;;;;;;;;9.67;8.33;;;;;20.75;36.37;99486.19;6283677;20;2758632;-58
2023/03/23 10:15:01;;;;;;;;;7.40;7.40;;;;;20.50;36.06;99487.91;6340106;20;2747154;-58
2023/03/23 10:17:50;;;;;;;;;5.50;5.50;;;;;20.59;36.78;99478.78;6309198;20;2690002;-59
2023/03/23 10:20:53;;;;;;;;;8.40;6.00;;;;;20.66;36.54;99479.81;6338143;20;2748236;-58
2023/03/23 10:23:51;;;;;;;;;4.60;4.60;;;;;19.96;36.74;99479.94;6307158;20;2745085;-56
2023/03/23 10:26:41;;;;;;;;;6.20;4.40;;;;;20.53;36.64;99476.66;6342248;20;2747167;-56
2023/03/23 10:29:43;;;;;;;;;6.80;6.00;;;;;21.27;35.87;99473.19;6342956;20;2739970;-58
2023/03/23 10:32:57;;;;;;;;;7.25;7.25;;;;;21.42;35.01;99470.66;6340034;20;2686776;-57
2023/03/23 10:35:42;;;;;;;;;8.80;6.40;;;;;21.20;35.10;99472.13;6336589;20;2732660;-58
2023/03/23 10:38:25;;;;;;;;;6.20;5.20;;;;;21.12;35.18;99480.31;6338105;20;2748206;-58
2023/03/23 10:41:05;;;;;;;;;6.33;5.00;;;;;21.92;34.48;99475.06;6286964;20;2747176;-54
2023/03/23 10:43:35;;;;;;;;;5.80;4.60;;;;;21.99;33.70;99475.25;6339685;20;2750381;-57
2023/03/23 10:46:50;;;;;;;;;4.00;4.00;;;;;21.87;34.65;99468.44;6308413;20;2742994;-56
2023/03/23 10:49:34;;;;;;;;;7.40;7.00;;;;;21.29;35.36;99463.97;6307736;20;2729528;-57
2023/03/23 10:52:16;;;;;;;;;6.00;4.40;;;;;21.79;35.22;99455.63;6340739;20;2752375;-55
2023/03/23 10:55:26;;;;;;;;;8.20;8.20;;;;;22.11;34.26;99454.69;6306788;20;2754453;-55
2023/03/23 10:58:06;;;;;;;;;14.00;11.00;;;;;21.92;35.29;99444.16;6280598;20;2787213;-58
2023/03/23 11:00:47;;;;;;;;;6.80;6.00;;;;;22.53;34.72;99442.63;6306595;20;2746115;-58
2023/03/23 11:03:17;;;;;;;;;8.20;7.00;;;;;22.08;33.91;99438.66;6306535;20;2744030;-57
2023/03/23 11:06:10;;;;;;;;;7.80;7.00;;;;;21.98;34.53;99439.88;6309110;20;2738857;-57
2023/03/23 11:09:03;;;;;;;;;5.80;5.80;;;;;21.83;34.90;99437.00;6340892;20;2739904;-59
2023/03/23 11:11:46;;;;;;;;;6.00;6.00;;;;;21.78;34.47;99436.69;6308752;20;2742986;-57
2023/03/23 11:14:37;;;;;;;;;7.00;7.00;;;;;22.13;33.70;99430.78;6339244;20;2744065;-57
2023/03/23 11:17:26;;;;;;;;;8.20;8.20;;;;;22.27;33.53;99433.84;6304557;20;2749257;-56
2023/03/23 11:19:55;;;;;;;;;9.00;9.00;;;;;21.81;34.62;99436.31;6291895;20;2745188;-59
2023/03/23 11:22:31;;;;;;;;;8.67;7.00;;;;;21.91;35.05;99431.53;6324166;20;2750277;-57
2023/03/23 11:25:05;;;;;;;;;5.20;4.20;;;;;21.71;34.70;99431.03;6336733;20;2738905;-56
2023/03/23 11:27:40;;;;;;;;;8.00;8.00;;;;;21.72;34.27;99431.88;6328790;20;1791399;-57
2023/03/23 11:30:27;;;;;;;;;4.60;4.20;;;;;21.52;35.23;99432.25;6338061;20;2747191;-56
2023/03/23 11:33:02;;;;;;;;;7.60;6.00;;;;;21.11;36.12;99429.44;6338516;20;2744025;-55
2023/03/23 11:35:31;;;;;;;;;8.00;6.33;;;;;21.50;34.97;99428.81;6282391;20;2746233;-56
2023/03/23 11:38:01;;;;;;;;;4.80;4.80;;;;;21.29;35.01;99436.66;6339274;20;2741970;-57
2023/03/23 11:40:35;;;;;;;;;4.80;4.80;;;;;21.20;35.16;99428.44;6306896;20;2741999;-57
2023/03/23 11:43:14;;;;;;;;;5.20;5.20;;;;;21.56;35.17;99419.94;6338837;20;2746122;-57
2023/03/23 11:46:04;;;;;;;;;7.60;6.00;;;;;21.92;34.55;99416.81;6342649;20;2728433;-57